Nearby METAR Reports
KAVP - Avoca/Wilkes B., Pennsylvania, USA
Distance from station: NE 13mi, 20km
Updated: Mon, 25-Sep-2017 1:54pm EDT
Clear
Clear
 Wind from varies
Wind: varies 3 mph , 6 km/h
Temperature: 90°F , 32°C
Heat Index: 93°F , 34°C
Dew Point: 66°F , 19°C
Humidity: 46%
Barometer: 30.07 inHg , 1018.3 hPa
Clouds: Clear
Visibility: 10 miles , 16 km
2017/09/25 17:54 KAVP 251754Z VRB03KT 10SM CLR 32/19 A3007 RMK AO2 SLP174 T03170194 10322 20194 56017
KMPO - Mt. Pocono, Pennsylvania, USA
Distance from station: ESE 28mi, 45km
Updated: Mon, 25-Sep-2017 1:53pm EDT
Clear
Clear
 Wind from NE
Wind: NE 6 mph , 9 km/h
Temperature: 81°F , 27°C
Heat Index: 83°F , 28°C
Dew Point: 66°F , 19°C
Humidity: 62%
Barometer: 30.14 inHg , 1020.7 hPa
Clouds: Clear
Visibility: 10 miles , 16 km
2017/09/25 17:53 KMPO 251753Z AUTO 05005KT 10SM CLR 27/19 A3014 RMK AO2 SLP192 T02720194 10278 20189 58010
 
KABE - Allentown, Pennsylvania, USA
Distance from station: SSE 46mi, 74km
Updated: Mon, 25-Sep-2017 1:51pm EDT
Clear
Clear
 Wind from ENE
Wind: ENE 7 mph , 11 km/h
Temperature: 90°F , 32°C
Heat Index: 96°F , 36°C
Dew Point: 70°F , 21°C
Humidity: 52%
Barometer: 30.05 inHg , 1017.6 hPa
Clouds: Clear
Visibility: 10 miles , 16 km
2017/09/25 17:51 KABE 251751Z 07006KT 10SM CLR 32/21 A3005 RMK AO2 SLP170 T03170206 10322 20194 $
KXLL - Allentown Queen, Pennsylvania, USA
Distance from station: SSE 50mi, 81km
Updated: Mon, 25-Sep-2017 2:35pm EDT
Clear
Clear
 Wind from E
Wind: E 7 mph , 11 km/h
Temperature: 90°F , 32°C
Heat Index: 93°F , 34°C
Dew Point: 66°F , 19°C
Humidity: 46%
Barometer: 30.04 inHg , 1017.3 hPa
Clouds: Clear
Visibility: 10 miles , 16 km
2017/09/25 18:35 KXLL 251835Z AUTO 08006KT 10SM CLR 32/19 A3004 RMK AO2
 
KIPT - Williamsport, Pennsylvania, USA
Distance from station: W 52mi, 84km
Updated: Mon, 25-Sep-2017 1:54pm EDT
Clear
Clear
 Wind from calm
Wind: Calm
Temperature: 88°F , 31°C
Heat Index: 93°F , 34°C
Dew Point: 70°F , 21°C
Humidity: 55%
Barometer: 30.04 inHg , 1017.3 hPa
Clouds: Clear
Visibility: 10 miles , 16 km
2017/09/25 17:54 KIPT 251754Z 00000KT 10SM CLR 31/21 A3004 RMK AO2 SLP168 T03110206 10317 20189 58018
KSEG - Selinsgrove, Pennsylvania, USA
Distance from station: WSW 57mi, 92km
Updated: Mon, 25-Sep-2017 1:53pm EDT
Clear
Clear
 Wind from calm
Wind: Calm
Temperature: 88°F , 31°C
Heat Index: 95°F , 35°C
Dew Point: 72°F , 22°C
Humidity: 59%
Barometer: 30.05 inHg , 1017.6 hPa
Clouds: Clear
Visibility: 8 miles , 13 km
2017/09/25 17:53 KSEG 251753Z AUTO 00000KT 8SM CLR 31/22 A3005 RMK AO2 SLP173 T03110217 10311 20178 56017
 
KRDG - Reading, Pennsylvania, USA
Distance from station: S 59mi, 95km
Updated: Mon, 25-Sep-2017 1:54pm EDT
Clear
Clear
 Wind from ENE
Wind: ENE 5 mph , 7 km/h
Temperature: 88°F , 31°C
Heat Index: 95°F , 35°C
Dew Point: 72°F , 22°C
Humidity: 59%
Barometer: 30.03 inHg , 1016.9 hPa
Clouds: Clear
Visibility: 10 miles , 16 km
2017/09/25 17:54 KRDG 251754Z AUTO 07004KT 10SM CLR 31/22 A3003 RMK AO2 SLP170 T03110222 10317 20200 58015
KUKT - Quakertown Arp, Pennsylvania, USA
Distance from station: SSE 61mi, 98km
Updated: Mon, 25-Sep-2017 2:35pm EDT
Clear
Clear
 Wind from E
Wind: E 5 mph , 7 km/h
Temperature: 88°F , 31°C
Heat Index: 92°F , 33°C
Dew Point: 68°F , 20°C
Humidity: 52%
Barometer: 30.05 inHg , 1017.6 hPa
Clouds: Clear
Visibility: 10 miles , 16 km
2017/09/25 18:35 KUKT 251835Z AUTO 10004KT 10SM CLR 31/20 A3005 RMK AO1
 
K12N - Andover, New Jersey, USA
Distance from station: ESE 63mi, 101km
Updated: Mon, 25-Sep-2017 1:54pm EDT

 Wind from calm
Wind: Calm
Temperature: 86°F , 30°C
Heat Index: 91°F , 33°C
Dew Point: 70°F , 21°C
Humidity: 59%
Barometer: 30.06 inHg , 1017.9 hPa
2017/09/25 17:54 K12N 251754Z AUTO 00000KT 30/21 A3006 RMK AO1 SLP172 T03000211 10311 20178 57013
KMUI - Muir Aaf/Indiant, Pennsylvania, USA
Distance from station: SSW 65mi, 105km
Updated: Mon, 25-Sep-2017 2:08pm EDT
Mostly cloudy
Mostly cloudy
 Wind from calm
Wind: Calm
Temperature: 88°F , 31°C
Heat Index: 92°F , 33°C
Dew Point: 68°F , 20°C
Humidity: 52%
Barometer: 30.04 inHg , 1017.3 hPa
Clouds: Mostly cloudy
Visibility: 10 miles , 16 km
Cloud details: Few Clouds 4000 ft
Mostly cloudy 25000 ft
2017/09/25 18:08 KMUI 251808Z COR 00000KT 10SM FEW040 BKN250 31/20 A3004 RMK SLP172 COR 1809
 
KFWN - Sussex, New Jersey, USA
Distance from station: E 66mi, 107km
Updated: Mon, 25-Sep-2017 1:53pm EDT
Clear
Clear
 Wind from NE
Wind: NE 3 mph , 6 km/h
Temperature: 88°F , 31°C
Heat Index: 95°F , 35°C
Dew Point: 72°F , 22°C
Humidity: 59%
Barometer: 30.06 inHg , 1017.9 hPa
Clouds: Clear
Visibility: 10 miles , 16 km
2017/09/25 17:53 KFWN 251753Z AUTO 04003KT 10SM CLR 31/22 A3006 RMK AO2 SLP175 60000 T03110217 10311 20172 56015
KMSV - Monticello, New York, USA
Distance from station: ENE 67mi, 108km
Updated: Mon, 25-Sep-2017 1:56pm EDT
Haze, Few clouds
Haze, Few clouds
 Wind from calm
Wind: Calm
Temperature: 84°F , 29°C
Heat Index: 87°F , 31°C
Dew Point: 68°F , 20°C
Humidity: 58%
Barometer: 30.12 inHg , 1020 hPa
Summary: Haze
Clouds: Few Clouds
Visibility: 6 miles , 10 km
Cloud details: Few Clouds 4400 ft
2017/09/25 17:56 KMSV 251756Z AUTO 00000KT 6SM HZ FEW044 29/20 A3012 RMK AO2 SLP191 T02890200 10294 20183 56013
 
KBGM - Binghamton, New York, USA
Distance from station: N 69mi, 111km
Updated: Mon, 25-Sep-2017 1:53pm EDT
Clear
Clear
 Wind from SW
Wind: SW 6 mph , 9 km/h
Temperature: 82°F , 28°C
Heat Index: 84°F , 29°C
Dew Point: 64°F , 18°C
Humidity: 55%
Barometer: 30.12 inHg , 1020 hPa
Clouds: Clear
Visibility: 10 miles , 16 km
2017/09/25 17:53 KBGM 251753Z 23005KT 10SM CLR 28/18 A3012 RMK AO2 SLP189 T02830183 10289 20183 58011
KPTW - Pottstown, Pennsylvania, USA
Distance from station: SSE 71mi, 114km
Updated: Mon, 25-Sep-2017 1:54pm EDT
Clear
Clear
 Wind from varies
Wind: varies 7 mph , 11 km/h
Temperature: 88°F , 31°C
Heat Index: 93°F , 34°C
Dew Point: 70°F , 21°C
Humidity: 55%
Barometer: 30.05 inHg , 1017.6 hPa
Clouds: Clear
Visibility: 8 miles , 13 km
2017/09/25 17:54 KPTW 251754Z AUTO VRB06KT 8SM CLR 31/21 A3005 RMK AO2 SLP172 T03060211 10306 20194 58013
 
KDYL - Doylestown, Pennsylvania, USA
Distance from station: SE 74mi, 119km
Updated: Mon, 25-Sep-2017 1:54pm EDT
Clear
Clear
 Wind from varies
Wind: varies 3 mph , 6 km/h
Temperature: 88°F , 31°C
Heat Index: 92°F , 33°C
Dew Point: 68°F , 20°C
Humidity: 52%
Barometer: 30.04 inHg , 1017.3 hPa
Clouds: Clear
Visibility: 10 miles , 16 km
2017/09/25 17:54 KDYL 251754Z AUTO VRB03KT 10SM CLR 31/20 A3004 RMK AO2 SLP165 T03060200 10317 20200 58012
KSMQ - Somerville, New Jersey, USA
Distance from station: ESE 77mi, 124km
Updated: Wed, 06-Sep-2017 9:01am EDT
NOT Current
Overcast
Overcast
 Wind from N
Wind: N 9 mph , 15 km/h, Gust: 17 mph , 28 km/h
Temperature: 64°F , 18°C
Dew Point: 61°F , 16°C
Humidity: 88%
Barometer: 29.87 inHg , 1011.5 hPa
Clouds: Overcast
Visibility: 7 miles , 11 km
Cloud details: Partly cloudy 1200 ft
Overcast 2500 ft
2017/09/06 13:01 KSMQ 061301Z AUTO 35008G15KT 7SM SCT012 OVC025 18/16 A2987 RMK AO2 PRESRR T01780161
 
KLNS - Lancaster, Pennsylvania, USA
Distance from station: SSW 79mi, 127km
Updated: Mon, 25-Sep-2017 1:53pm EDT
Clear
Clear
 Wind from varies
Wind: varies 3 mph , 6 km/h
Temperature: 90°F , 32°C
Heat Index: 96°F , 36°C
Dew Point: 70°F , 21°C
Humidity: 52%
Barometer: 30.04 inHg , 1017.3 hPa
Clouds: Clear
Visibility: 9 miles , 14 km
2017/09/25 17:53 KLNS 251753Z VRB03KT 9SM CLR 32/21 A3004 RMK AO2 SLP168 T03170206 10317 20194 58013
KELM - Elmira, New York, USA
Distance from station: NW 82mi, 132km
Updated: Mon, 25-Sep-2017 1:53pm EDT
Clear
Clear
 Wind from calm
Wind: Calm
Temperature: 88°F , 31°C
Heat Index: 90°F , 32°C
Dew Point: 64°F , 18°C
Humidity: 46%
Barometer: 30.08 inHg , 1018.6 hPa
Clouds: Clear
Visibility: 10 miles , 16 km
2017/09/25 17:53 KELM 251753Z 00000KT 10SM CLR 31/18 A3008 RMK AO2 SLP178 T03110183 10311 20178 58017
 
KLOM - Philly Wings F, Pennsylvania, USA
Distance from station: SSE 82mi, 132km
Updated: Mon, 25-Sep-2017 2:15pm EDT
Clear
Clear
 Wind from E
Wind: E 3 mph , 6 km/h
Temperature: 88°F , 31°C
Heat Index: 92°F , 33°C
Dew Point: 68°F , 20°C
Humidity: 52%
Barometer: 30.04 inHg , 1017.3 hPa
Clouds: Clear
Visibility: 10 miles , 16 km
2017/09/25 18:15 KLOM 251815Z AUTO 10003KT 10SM CLR 31/20 A3004 RMK AO1
KMMU - Morristown Muni, New Jersey, USA
Distance from station: ESE 83mi, 134km
Updated: Mon, 25-Sep-2017 1:45pm EDT
Few Clouds
Few Clouds
 Wind from N
Wind: N 6 mph , 9 km/h
Temperature: 88°F , 31°C
Heat Index: 92°F , 33°C
Dew Point: 68°F , 20°C
Humidity: 52%
Barometer: 30.04 inHg , 1017.3 hPa
Clouds: Few Clouds
Visibility: 10 miles , 16 km
Cloud details: Few Clouds 10000 ft
2017/09/25 17:45 KMMU 251745Z 01005KT 10SM FEW100 31/20 A3004

Metar display script from Saratoga-Weather.org


Cairn Terrier Rescue
teddybearweather.com 2009-2013